Time;durP1;ratioP1;P1;durP2;ratioP2;P2;SDS_P1;SDS_P2;PMS_P1;PMS_P2;Temp;Humidity;BMP_temperature;BMP_pressure;BME280_temperature;BME280_humidity;BME280_pressure;Samples;Min_cycle;Max_cycle;Signal;HPM_P1;HPM_P2
2021/08/05 00:00:40;;;;;;;4.43;2.80;;;17.00;14.80;;;;;;5095328;27;20103;-88
2021/08/05 00:03:29;;;;;;;5.22;2.90;;;17.00;15.20;;;;;;5108043;27;20410;-88
2021/08/05 00:06:19;;;;;;;4.82;2.72;;;17.00;15.10;;;;;;5099857;27;20055;-88
2021/08/05 00:09:08;;;;;;;3.90;2.83;;;17.00;15.40;;;;;;5111354;27;20047;-88
2021/08/05 00:11:56;;;;;;;4.35;2.42;;;16.80;16.10;;;;;;5110534;27;20555;-88
2021/08/05 00:14:45;;;;;;;4.15;2.45;;;16.80;16.60;;;;;;5106710;27;20062;-88
2021/08/05 00:17:35;;;;;;;4.45;2.90;;;16.70;16.60;;;;;;5114260;27;20095;-87
2021/08/05 00:20:23;;;;;;;4.45;2.58;;;16.70;17.10;;;;;;5099189;27;20040;-87
2021/08/05 00:23:13;;;;;;;3.80;2.35;;;16.80;17.60;;;;;;5128621;27;20058;-86
2021/08/05 00:26:02;;;;;;;3.03;2.60;;;16.70;17.60;;;;;;5113545;27;20070;-89
2021/08/05 00:28:50;;;;;;;6.13;3.03;;;16.70;17.60;;;;;;5094713;27;20059;-88
2021/08/05 00:31:39;;;;;;;3.67;2.80;;;16.60;17.90;;;;;;5113648;27;20055;-89
2021/08/05 00:34:28;;;;;;;4.78;3.15;;;16.60;18.50;;;;;;5103607;27;20046;-88
2021/08/05 00:37:17;;;;;;;3.88;2.70;;;16.60;19.10;;;;;;5109402;27;20489;-87
2021/08/05 00:40:09;;;;;;;3.42;2.85;;;16.60;19.50;;;;;;5094335;27;20054;-88
2021/08/05 00:42:57;;;;;;;4.03;2.80;;;16.60;19.00;;;;;;5108976;27;20054;-89
2021/08/05 00:45:46;;;;;;;2.95;2.25;;;16.60;18.80;;;;;;5095641;27;20047;-87
2021/08/05 00:48:35;;;;;;;4.57;2.80;;;16.60;18.90;;;;;;5107319;27;20612;-87
2021/08/05 00:51:24;;;;;;;3.35;2.67;;;16.60;19.00;;;;;;5100761;27;20131;-87
2021/08/05 00:54:13;;;;;;;3.55;2.85;;;16.60;19.10;;;;;;5122021;27;20107;-87
2021/08/05 00:57:03;;;;;;;4.80;3.10;;;16.70;18.50;;;;;;5103124;27;20669;-89
2021/08/05 00:59:52;;;;;;;4.88;3.00;;;16.70;18.90;;;;;;5111247;27;20179;-88
2021/08/05 01:02:46;;;;;;;5.05;3.15;;;16.60;19.50;;;;;;5119032;27;20391;-88
2021/08/05 01:05:39;;;;;;;4.03;2.78;;;16.60;19.60;;;;;;5093334;27;20040;-88
2021/08/05 01:08:32;;;;;;;4.60;2.35;;;16.50;18.60;;;;;;5103212;27;20054;-88
2021/08/05 01:11:25;;;;;;;3.67;2.80;;;16.50;19.00;;;;;;5096024;27;20047;-87
2021/08/05 01:14:19;;;;;;;4.68;2.70;;;16.50;19.10;;;;;;5093555;27;20052;-86
2021/08/05 01:17:10;;;;;;;3.05;2.60;;;16.50;19.50;;;;;;5112444;27;20039;-87
2021/08/05 01:20:00;;;;;;;3.50;2.65;;;16.50;19.50;;;;;;5093042;27;20542;-87
2021/08/05 01:23:01;;;;;;;5.15;3.42;;;16.40;19.70;;;;;;5094899;27;20043;-88
2021/08/05 01:25:55;;;;;;;5.95;3.08;;;16.40;20.30;;;;;;5095285;27;20532;-87
2021/08/05 01:28:47;;;;;;;3.72;3.08;;;16.40;20.50;;;;;;5099074;27;20050;-87
2021/08/05 01:31:36;;;;;;;4.88;3.30;;;16.40;20.50;;;;;;5095517;27;20051;-87
2021/08/05 01:34:25;;;;;;;5.07;3.60;;;16.40;20.30;;;;;;5104780;27;20631;-88
2021/08/05 01:37:15;;;;;;;3.90;3.15;;;16.40;20.10;;;;;;5097092;27;20058;-88
2021/08/05 01:40:05;;;;;;;4.90;3.20;;;16.40;20.10;;;;;;5087197;27;20043;-89
2021/08/05 01:42:57;;;;;;;4.85;3.60;;;16.40;20.20;;;;;;5126557;27;20059;-87
2021/08/05 01:45:48;;;;;;;6.03;3.60;;;16.40;20.50;;;;;;5106641;27;20050;-86
2021/08/05 01:48:38;;;;;;;5.07;3.40;;;16.50;20.60;;;;;;5101768;27;20545;-86
2021/08/05 01:51:28;;;;;;;7.10;2.95;;;16.40;20.70;;;;;;5092870;27;20050;-87
2021/08/05 01:54:17;;;;;;;4.05;2.58;;;16.40;21.60;;;;;;5128891;27;20053;-87
2021/08/05 01:57:06;;;;;;;4.32;3.17;;;16.30;21.50;;;;;;5125707;27;20035;-88
2021/08/05 01:59:55;;;;;;;4.93;3.00;;;16.30;22.00;;;;;;5115303;27;20663;-87
2021/08/05 02:02:45;;;;;;;4.97;2.78;;;16.40;21.90;;;;;;5118649;27;20060;-87
2021/08/05 02:05:42;;;;;;;5.60;3.28;;;16.40;22.30;;;;;;5112000;27;20090;-87
2021/08/05 02:08:39;;;;;;;3.35;2.70;;;16.40;22.80;;;;;;5128963;27;20626;-87
2021/08/05 02:11:29;;;;;;;4.03;2.70;;;16.40;22.70;;;;;;5120469;27;20039;-87
2021/08/05 02:14:21;;;;;;;6.00;3.83;;;16.40;22.40;;;;;;5130761;27;20130;-87
2021/08/05 02:17:11;;;;;;;5.35;3.58;;;16.40;23.00;;;;;;5111337;27;20051;-87
2021/08/05 02:20:07;;;;;;;5.68;3.40;;;16.30;22.90;;;;;;5110047;27;20076;-87
2021/08/05 02:22:56;;;;;;;4.60;3.90;;;16.40;22.80;;;;;;5087193;27;20047;-87
2021/08/05 02:25:46;;;;;;;5.45;3.25;;;16.40;22.90;;;;;;5101733;27;20790;-87
2021/08/05 02:28:35;;;;;;;7.28;3.38;;;16.30;23.00;;;;;;5126476;27;20405;-87
2021/08/05 02:31:25;;;;;;;4.75;3.22;;;16.30;22.40;;;;;;5095928;27;20122;-87
2021/08/05 02:34:15;;;;;;;7.72;2.92;;;16.20;22.80;;;;;;5111688;27;20130;-87
2021/08/05 02:37:06;;;;;;;3.80;3.00;;;16.20;23.10;;;;;;5098562;27;20047;-87
2021/08/05 02:39:54;;;;;;;4.88;2.90;;;16.20;23.40;;;;;;5099513;27;20055;-86
2021/08/05 02:42:44;;;;;;;3.78;2.90;;;16.10;23.40;;;;;;5094170;27;20125;-86
2021/08/05 02:45:34;;;;;;;6.85;3.15;;;16.10;23.10;;;;;;5111862;27;20080;-87
2021/08/05 02:48:23;;;;;;;4.43;2.60;;;16.00;24.00;;;;;;5097846;27;20120;-87
2021/08/05 02:51:13;;;;;;;4.45;2.72;;;16.00;24.60;;;;;;5092619;27;20055;-88
2021/08/05 02:54:03;;;;;;;6.43;3.20;;;15.80;26.00;;;;;;5103613;27;20134;-88
2021/08/05 02:56:52;;;;;;;3.90;2.80;;;15.80;26.50;;;;;;5110769;27;20054;-88
2021/08/05 02:59:42;;;;;;;3.95;2.70;;;15.80;27.30;;;;;;5097981;27;20048;-88
2021/08/05 03:02:31;;;;;;;5.10;3.00;;;15.80;27.70;;;;;;5114311;27;20036;-88
2021/08/05 03:05:20;;;;;;;5.47;3.20;;;15.80;27.90;;;;;;5091593;27;20130;-87
2021/08/05 03:08:08;;;;;;;7.10;3.30;;;15.70;28.50;;;;;;5108857;27;20066;-86
2021/08/05 03:10:58;;;;;;;5.03;3.60;;;15.60;30.00;;;;;;5126479;27;20043;-87
2021/08/05 03:13:47;;;;;;;4.53;3.50;;;15.60;30.10;;;;;;5121493;27;20053;-88
2021/08/05 03:16:35;;;;;;;4.68;3.50;;;15.60;30.60;;;;;;5107665;27;20561;-85
2021/08/05 03:19:24;;;;;;;6.75;3.70;;;15.60;31.00;;;;;;5094284;27;20050;-87
2021/08/05 03:22:12;;;;;;;7.68;3.55;;;15.50;31.60;;;;;;5109215;27;20060;-87
2021/08/05 03:25:00;;;;;;;4.97;3.60;;;15.50;32.40;;;;;;5098402;27;20047;-88
2021/08/05 03:28:08;;;;;;;5.05;3.88;;;15.40;33.30;;;;;;5117183;27;20080;-86
2021/08/05 03:30:57;;;;;;;5.07;3.90;;;15.40;34.20;;;;;;5106275;27;20044;-87
2021/08/05 03:33:46;;;;;;;5.32;3.63;;;15.30;34.30;;;;;;5115522;27;20058;-88
2021/08/05 03:36:34;;;;;;;4.20;3.70;;;15.30;34.00;;;;;;5125094;27;20039;-86
2021/08/05 03:39:23;;;;;;;6.10;4.15;;;15.30;34.30;;;;;;5094301;27;20050;-87
2021/08/05 03:42:11;;;;;;;5.47;4.30;;;15.20;34.50;;;;;;5122490;27;20043;-87
2021/08/05 03:45:01;;;;;;;6.78;4.13;;;15.20;34.50;;;;;;5126140;27;20414;-86
2021/08/05 03:47:49;;;;;;;5.40;3.85;;;15.10;35.60;;;;;;5111528;27;20049;-87
2021/08/05 03:50:38;;;;;;;7.15;4.47;;;15.10;35.30;;;;;;5133251;27;20078;-86
2021/08/05 03:53:26;;;;;;;6.63;4.00;;;15.20;35.60;;;;;;5107894;27;20505;-87
2021/08/05 03:56:15;;;;;;;4.88;3.90;;;15.10;35.20;;;;;;5119716;27;20062;-87
2021/08/05 03:59:03;;;;;;;4.68;3.85;;;15.20;34.80;;;;;;5106196;27;20351;-86
2021/08/05 04:01:53;;;;;;;7.53;4.10;;;15.10;34.30;;;;;;5102226;27;20557;-87
2021/08/05 04:04:42;;;;;;;5.57;3.60;;;15.00;35.30;;;;;;5107645;27;20055;-87
2021/08/05 04:07:31;;;;;;;5.57;4.10;;;15.00;35.10;;;;;;5108196;27;20067;-87
2021/08/05 04:10:19;;;;;;;7.03;3.88;;;15.10;34.30;;;;;;5093809;27;20054;-87
2021/08/05 04:13:07;;;;;;;6.00;3.75;;;15.10;34.70;;;;;;5096122;27;20043;-87
2021/08/05 04:15:56;;;;;;;6.20;3.83;;;15.10;34.50;;;;;;5109090;27;20039;-87
2021/08/05 04:18:46;;;;;;;4.32;3.75;;;15.10;34.20;;;;;;5125451;27;20051;-87
2021/08/05 04:21:34;;;;;;;5.13;3.60;;;15.00;33.40;;;;;;5109998;27;20035;-87
2021/08/05 04:24:23;;;;;;;5.13;3.80;;;15.20;33.10;;;;;;5099239;27;20192;-86
2021/08/05 04:27:14;;;;;;;5.95;3.60;;;15.20;33.10;;;;;;5124113;27;20083;-87
2021/08/05 04:30:04;;;;;;;5.25;4.00;;;15.40;33.30;;;;;;5110110;27;20047;-88
2021/08/05 04:32:53;;;;;;;5.30;3.97;;;15.40;33.30;;;;;;5127186;27;20035;-86
2021/08/05 04:35:42;;;;;;;4.50;3.55;;;15.40;34.00;;;;;;5096684;27;20422;-88
2021/08/05 04:38:31;;;;;;;6.88;3.88;;;15.50;34.10;;;;;;5103522;27;20045;-87
2021/08/05 04:41:19;;;;;;;6.57;4.10;;;15.60;34.90;;;;;;5111497;27;20082;-87
2021/08/05 04:44:08;;;;;;;6.65;4.05;;;15.70;35.00;;;;;;5110655;27;20042;-87
2021/08/05 04:46:56;;;;;;;8.20;4.30;;;15.90;34.70;;;;;;5124589;27;20046;-88
2021/08/05 04:49:44;;;;;;;7.43;3.92;;;16.00;33.80;;;;;;5125325;27;20047;-87
2021/08/05 04:52:35;;;;;;;7.90;4.45;;;16.00;33.80;;;;;;5098816;27;20046;-87
2021/08/05 04:55:23;;;;;;;8.60;4.28;;;16.20;34.00;;;;;;5127346;27;20047;-86
2021/08/05 04:58:12;;;;;;;7.20;4.97;;;16.40;31.80;;;;;;5090271;27;20406;-87
2021/08/05 05:01:01;;;;;;;6.30;4.68;;;18.20;14.90;;;;;;5121363;27;20570;-87
2021/08/05 05:03:49;;;;;;;6.10;3.67;;;19.20;8.40;;;;;;5127337;27;20079;-87
2021/08/05 05:06:38;;;;;;;7.22;4.40;;;19.70;4.50;;;;;;5099609;27;20413;-88
2021/08/05 05:09:28;;;;;;;6.60;4.60;;;18.50;8.30;;;;;;5123252;27;20108;-86
2021/08/05 05:12:16;;;;;;;7.38;4.05;;;17.50;14.90;;;;;;5120839;27;20482;-88
2021/08/05 05:15:07;;;;;;;7.15;3.92;;;17.10;21.00;;;;;;5119210;27;20043;-88
2021/08/05 05:17:55;;;;;;;5.70;3.83;;;16.80;22.60;;;;;;5101241;27;20051;-88
2021/08/05 05:20:44;;;;;;;7.38;4.28;;;16.80;23.30;;;;;;5110555;27;20051;-88
2021/08/05 05:23:33;;;;;;;7.90;4.60;;;16.60;25.60;;;;;;5094477;27;20521;-86
2021/08/05 05:26:22;;;;;;;7.65;4.50;;;16.70;26.50;;;;;;5105555;27;20055;-87
2021/08/05 05:29:11;;;;;;;6.93;4.28;;;16.80;25.80;;;;;;5101125;27;20051;-86
2021/08/05 05:31:59;;;;;;;6.57;3.80;;;16.80;25.90;;;;;;5126110;27;20132;-86
2021/08/05 05:34:48;;;;;;;6.40;4.07;;;16.70;25.70;;;;;;5101831;27;20054;-87
2021/08/05 05:37:36;;;;;;;7.32;4.13;;;16.60;27.10;;;;;;5113748;27;20050;-87
2021/08/05 05:40:25;;;;;;;8.70;4.45;;;16.70;26.60;;;;;;5118187;27;20039;-87
2021/08/05 05:43:15;;;;;;;5.63;3.92;;;16.50;27.30;;;;;;5095508;27;20043;-88
2021/08/05 05:46:04;;;;;;;5.10;4.00;;;16.60;26.60;;;;;;5101564;27;20074;-86
2021/08/05 05:48:52;;;;;;;5.47;3.78;;;16.70;26.60;;;;;;5127216;27;20043;-86
2021/08/05 05:51:41;;;;;;;6.07;3.95;;;16.90;25.00;;;;;;5101085;27;20131;-87
2021/08/05 05:54:29;;;;;;;8.85;4.30;;;17.00;25.40;;;;;;5108356;27;20221;-88
2021/08/05 05:57:17;;;;;;;6.10;3.83;;;17.00;23.60;;;;;;5102228;27;20059;-86
2021/08/05 06:00:09;;;;;;;6.28;4.30;;;17.00;23.40;;;;;;5126481;27;20062;-86
2021/08/05 06:03:02;;;;;;;7.97;3.78;;;17.40;22.20;;;;;;5126492;27;20410;-87
2021/08/05 06:05:51;;;;;;;6.35;4.30;;;17.50;20.60;;;;;;5103174;27;20804;-88
2021/08/05 06:08:39;;;;;;;9.23;4.28;;;17.80;19.70;;;;;;5129118;27;20058;-87
2021/08/05 06:11:28;;;;;;;8.07;4.05;;;18.00;16.70;;;;;;5098628;27;20077;-87
2021/08/05 06:14:17;;;;;;;6.45;3.72;;;18.30;15.20;;;;;;5114717;27;20224;-88
2021/08/05 06:17:07;;;;;;;8.55;3.75;;;18.40;13.40;;;;;;5099099;27;20043;-86
2021/08/05 06:19:57;;;;;;;6.10;3.28;;;18.20;12.10;;;;;;5102353;27;20421;-87
2021/08/05 06:22:47;;;;;;;6.03;3.78;;;18.80;9.70;;;;;;5113399;27;20513;-87
2021/08/05 06:25:37;;;;;;;14.57;4.43;;;18.80;8.60;;;;;;5112022;27;20068;-86
2021/08/05 06:28:25;;;;;;;4.53;3.15;;;19.20;7.60;;;;;;5098426;27;20817;-86
2021/08/05 06:31:16;;;;;;;3.75;2.88;;;19.30;4.10;;;;;;5123781;27;20046;-88
2021/08/05 06:34:06;;;;;;;3.72;2.85;;;20.40;1.00;;;;;;5097185;27;20047;-88
2021/08/05 06:36:55;;;;;;;4.53;3.30;;;21.50;1.00;;;;;;5131648;27;20076;-87
2021/08/05 06:39:43;;;;;;;5.00;2.90;;;20.80;1.00;;;;;;5122469;27;20051;-88
2021/08/05 06:42:32;;;;;;;4.32;2.53;;;20.70;1.00;;;;;;5099328;27;20049;-87
2021/08/05 06:45:21;;;;;;;3.63;2.63;;;20.20;1.00;;;;;;5107708;27;20486;-87
2021/08/05 06:48:09;;;;;;;3.92;2.90;;;19.80;1.00;;;;;;5126702;27;20054;-87
2021/08/05 06:50:59;;;;;;;5.10;2.50;;;19.10;1.00;;;;;;5112958;27;20043;-89
2021/08/05 06:53:47;;;;;;;6.05;2.88;;;19.90;1.00;;;;;;5097040;27;20174;-88
2021/08/05 06:56:36;;;;;;;4.63;2.80;;;19.60;1.00;;;;;;5109776;27;20414;-88
2021/08/05 06:59:24;;;;;;;4.20;3.00;;;19.40;1.00;;;;;;5106572;27;20054;-89
2021/08/05 07:02:12;;;;;;;4.72;2.65;;;19.70;1.00;;;;;;5113691;27;20387;-89
2021/08/05 07:05:03;;;;;;;5.10;3.03;;;19.50;1.00;;;;;;5113892;27;20042;-89
2021/08/05 07:07:55;;;;;;;4.80;2.75;;;19.00;1.00;;;;;;5112710;27;20438;-88
2021/08/05 07:10:43;;;;;;;5.70;3.45;;;18.90;1.00;;;;;;5094130;27;20107;-88
2021/08/05 07:13:32;;;;;;;5.63;3.00;;;18.90;1.00;;;;;;5111703;27;20478;-89
2021/08/05 07:16:20;;;;;;;2.70;2.45;;;18.70;1.00;;;;;;5130993;27;20050;-90
2021/08/05 07:19:09;;;;;;;5.80;3.08;;;19.00;1.00;;;;;;5101159;27;20699;-89
2021/08/05 07:21:57;;;;;;;4.68;3.10;;;19.30;1.00;;;;;;5110731;27;20051;-89
2021/08/05 07:24:47;;;;;;;3.35;2.70;;;19.40;1.00;;;;;;5097718;27;20134;-89
2021/08/05 07:27:40;;;;;;;6.40;3.13;;;19.00;1.00;;;;;;5097586;27;20434;-89
2021/08/05 07:30:30;;;;;;;9.20;6.50;;;18.70;1.00;;;;;;5096086;27;20047;-90
2021/08/05 07:33:19;;;;;;;5.30;3.00;;;19.30;1.00;;;;;;5097441;27;20422;-89
2021/08/05 07:36:07;;;;;;;3.10;2.55;;;18.80;1.00;;;;;;5097190;27;20043;-90
2021/08/05 07:38:56;;;;;;;3.30;2.60;;;18.50;1.10;;;;;;5099343;27;20049;-89
2021/08/05 07:41:46;;;;;;;6.30;3.00;;;18.30;2.10;;;;;;5099027;27;20062;-90
2021/08/05 07:44:34;;;;;;;3.85;2.47;;;19.10;1.10;;;;;;5102410;27;20096;-88
2021/08/05 07:47:24;;;;;;;6.22;2.70;;;19.10;1.00;;;;;;5098190;27;20051;-90
2021/08/05 07:50:14;;;;;;;7.60;3.13;;;19.00;1.00;;;;;;5100830;27;20488;-90
2021/08/05 07:53:03;;;;;;;3.20;2.67;;;18.90;1.00;;;;;;5098190;27;20051;-90
2021/08/05 07:55:52;;;;;;;7.40;3.17;;;19.50;1.00;;;;;;5096252;27;20074;-90
2021/08/05 07:58:42;;;;;;;5.05;2.85;;;19.70;1.00;;;;;;5098024;27;20043;-91
2021/08/05 08:01:30;;;;;;;4.60;2.85;;;19.30;1.00;;;;;;5095109;27;20163;-90
2021/08/05 08:04:19;;;;;;;6.28;4.97;;;19.70;1.00;;;;;;5098679;27;20092;-88
2021/08/05 08:07:08;;;;;;;6.45;3.47;;;19.90;1.00;;;;;;5110948;27;20116;-89
2021/08/05 08:09:56;;;;;;;3.42;3.00;;;19.50;1.00;;;;;;5096248;27;20398;-88
2021/08/05 08:12:45;;;;;;;4.50;3.10;;;19.50;1.00;;;;;;5096033;27;20055;-91
2021/08/05 08:15:57;;;;;;;4.60;3.28;;;19.50;1.00;;;;;;5108387;27;20059;-90
2021/08/05 08:18:45;;;;;;;3.25;2.55;;;19.60;1.00;;;;;;5100409;27;20130;-89
2021/08/05 08:21:34;;;;;;;6.22;2.75;;;20.20;1.00;;;;;;5095181;27;20457;-90
2021/08/05 08:24:23;;;;;;;3.70;2.80;;;20.00;1.00;;;;;;5093777;27;20047;-90
2021/08/05 08:27:12;;;;;;;4.38;2.90;;;20.20;1.00;;;;;;5099522;27;20427;-91
2021/08/05 08:30:00;;;;;;;4.35;2.55;;;20.40;1.00;;;;;;5111428;27;20070;-90
2021/08/05 08:32:50;;;;;;;5.47;3.03;;;20.00;1.00;;;;;;5100738;27;20062;-90
2021/08/05 08:35:38;;;;;;;5.13;2.92;;;19.90;1.00;;;;;;5099031;27;20379;-91
2021/08/05 08:38:27;;;;;;;7.97;3.55;;;19.80;1.00;;;;;;5096619;27;20059;-90
2021/08/05 08:41:15;;;;;;;5.10;2.97;;;20.30;1.00;;;;;;5094576;27;20071;-89
2021/08/05 08:44:04;;;;;;;4.30;3.50;;;20.50;1.00;;;;;;5095717;27;20145;-89
2021/08/05 08:46:54;;;;;;;5.57;3.30;;;20.10;1.00;;;;;;5100192;27;20498;-88
2021/08/05 08:49:49;;;;;;;4.57;2.67;;;19.90;1.00;;;;;;5097820;27;20043;-89
2021/08/05 08:52:41;;;;;;;4.35;3.10;;;20.00;1.00;;;;;;5098142;27;20043;-89
2021/08/05 08:55:30;;;;;;;7.22;3.42;;;19.80;1.00;;;;;;5101627;27;20046;-89
2021/08/05 08:58:19;;;;;;;16.23;9.88;;;20.00;1.00;;;;;;5101930;27;20047;-89
2021/08/05 09:01:09;;;;;;;5.55;3.35;;;20.30;1.00;;;;;;5093786;27;20596;-89
2021/08/05 09:03:57;;;;;;;5.07;3.15;;;19.80;1.00;;;;;;5099205;27;20062;-88
2021/08/05 09:06:48;;;;;;;3.85;3.05;;;19.20;1.00;;;;;;5099627;27;20043;-88
2021/08/05 09:09:37;;;;;;;4.65;3.08;;;20.20;1.00;;;;;;5100624;27;20086;-89
2021/08/05 09:12:25;;;;;;;4.32;2.33;;;20.90;1.00;;;;;;5117142;27;20050;-88
2021/08/05 09:15:14;;;;;;;3.25;2.55;;;20.80;1.00;;;;;;5099820;27;21040;-89
2021/08/05 09:18:03;;;;;;;4.75;2.65;;;20.30;1.00;;;;;;5099704;27;20058;-89
2021/08/05 09:21:14;;;;;;;4.90;2.63;;;20.40;1.00;;;;;;5101257;27;20091;-90
2021/08/05 09:24:06;;;;;;;6.00;2.33;;;20.80;1.00;;;;;;5097576;27;20035;-91
2021/08/05 09:26:57;;;;;;;4.45;2.30;;;21.00;1.00;;;;;;5101207;27;20047;-90
2021/08/05 09:29:46;;;;;;;2.92;2.58;;;20.80;1.00;;;;;;5100252;27;20118;-90
2021/08/05 09:32:34;;;;;;;5.60;2.30;;;20.60;1.00;;;;;;5096501;27;20383;-90
2021/08/05 09:35:29;;;;;;;4.15;2.08;;;20.80;1.00;;;;;;5100114;27;20058;-90
2021/08/05 09:38:26;;;;;;;4.18;2.63;;;20.80;1.00;;;;;;5110678;27;20043;-89
2021/08/05 09:41:16;;;;;;;3.53;2.60;;;21.30;1.00;;;;;;5101801;27;20055;-91
2021/08/05 09:44:04;;;;;;;3.88;2.63;;;21.50;1.00;;;;;;5098601;27;20486;-89
2021/08/05 09:47:05;;;;;;;5.95;2.55;;;21.40;1.00;;;;;;5099631;27;20625;-90
2021/08/05 09:49:55;;;;;;;5.57;2.45;;;21.60;1.00;;;;;;5100432;27;20095;-90
2021/08/05 09:52:44;;;;;;;3.38;2.40;;;21.40;1.00;;;;;;5121880;27;20468;-89
2021/08/05 09:55:35;;;;;;;2.80;2.30;;;21.40;1.00;;;;;;5110598;27;20044;-91
2021/08/05 09:58:28;;;;;;;4.53;2.70;;;21.20;1.00;;;;;;5103106;27;20039;-89
2021/08/05 10:01:54;;;;;;;3.53;2.60;;;21.00;1.00;;;;;;5096445;27;20062;-90
2021/08/05 10:04:45;;;;;;;3.53;2.65;;;22.00;1.00;;;;;;5100444;27;20043;-88
2021/08/05 10:07:41;;;;;;;3.22;2.55;;;21.90;1.00;;;;;;5104336;27;20043;-91
2021/08/05 10:10:49;;;;;;;3.85;2.40;;;22.20;1.00;;;;;;5104680;27;20047;-90
2021/08/05 10:13:41;;;;;;;4.43;2.65;;;22.60;1.00;;;;;;5100552;27;20039;-90
2021/08/05 10:16:40;;;;;;;2.72;2.25;;;22.30;1.00;;;;;;5100920;27;20129;-89
2021/08/05 10:19:30;;;;;;;3.20;2.25;;;22.50;1.00;;;;;;5098950;27;20059;-89
2021/08/05 10:22:19;;;;;;;4.75;2.75;;;22.90;1.00;;;;;;5097373;27;20047;-89
2021/08/05 10:25:11;;;;;;;6.78;2.85;;;22.60;1.00;;;;;;5099065;27;20177;-90
2021/08/05 10:28:01;;;;;;;4.00;2.72;;;23.00;1.00;;;;;;5101555;27;20084;-89
2021/08/05 10:30:53;;;;;;;4.18;2.70;;;21.90;1.00;;;;;;5095614;27;20039;-90
2021/08/05 10:33:46;;;;;;;3.72;2.78;;;22.20;1.00;;;;;;5099560;27;20047;-89
2021/08/05 10:36:35;;;;;;;7.63;3.13;;;22.30;1.00;;;;;;5100262;27;20074;-90
2021/08/05 10:39:24;;;;;;;4.82;2.55;;;22.30;1.00;;;;;;5102818;27;20050;-90
2021/08/05 10:42:14;;;;;;;3.92;2.47;;;22.30;1.00;;;;;;5096135;27;20043;-89
2021/08/05 10:45:05;;;;;;;3.13;2.20;;;22.40;1.00;;;;;;5093136;27;20492;-91
2021/08/05 10:47:55;;;;;;;3.92;2.10;;;22.20;1.00;;;;;;5103575;27;20039;-90
2021/08/05 10:50:49;;;;;;;3.40;2.20;;;22.00;1.00;;;;;;5098647;27;20035;-90
2021/08/05 10:53:44;;;;;;;4.25;1.92;;;22.10;1.00;;;;;;5095794;27;20047;-89
2021/08/05 10:56:33;;;;;;;2.72;2.33;;;22.00;1.00;;;;;;5094828;27;20407;-90
2021/08/05 10:59:22;;;;;;;3.88;2.05;;;22.30;1.00;;;;;;5092165;27;20138;-91
2021/08/05 11:02:12;;;;;;;4.57;2.20;;;21.70;1.00;;;;;;5093253;27;20059;-90
2021/08/05 11:05:02;;;;;;;4.53;2.25;;;22.00;1.00;;;;;;5093054;27;20187;-90
2021/08/05 11:07:54;;;;;;;4.15;2.00;;;21.90;1.00;;;;;;5096033;27;20133;-90
2021/08/05 11:10:44;;;;;;;3.55;2.00;;;22.30;1.00;;;;;;5090783;27;20107;-90
2021/08/05 11:13:32;;;;;;;3.28;2.38;;;22.50;1.00;;;;;;5103533;27;20062;-90
2021/08/05 11:17:04;;;;;;;4.57;2.55;;;22.30;1.00;;;;;;5093906;27;20529;-90
2021/08/05 11:20:17;;;;;;;3.30;2.20;;;22.50;1.00;;;;;;5093284;27;20051;-91
2021/08/05 11:23:07;;;;;;;3.35;1.70;;;22.70;1.00;;;;;;5094904;27;20054;-90
2021/08/05 11:26:04;;;;;;;7.85;5.28;;;23.10;1.00;;;;;;5089490;27;20048;-89
2021/08/05 11:28:59;;;;;;;4.68;2.15;;;23.50;1.00;;;;;;5089953;27;20116;-90
2021/08/05 11:31:48;;;;;;;3.83;2.40;;;23.80;1.00;;;;;;5090162;27;20175;-90
2021/08/05 11:34:56;;;;;;;2.55;1.95;;;23.70;1.00;;;;;;5087380;27;20043;-89
2021/08/05 11:38:10;;;;;;;4.18;1.70;;;23.90;1.00;;;;;;5093411;27;20067;-89
2021/08/05 11:41:00;;;;;;;1.90;1.52;;;24.30;1.00;;;;;;5089949;27;20043;-91
2021/08/05 11:43:48;;;;;;;2.75;1.45;;;24.40;1.00;;;;;;5090496;27;20047;-90
2021/08/05 11:46:37;;;;;;;2.00;1.35;;;24.50;1.00;;;;;;5095018;27;20228;-89
2021/08/05 11:49:35;;;;;;;3.58;1.45;;;24.50;1.00;;;;;;5092026;27;20386;-90
2021/08/05 11:52:31;;;;;;;4.18;1.80;;;24.00;1.00;;;;;;5101161;27;20062;-90
2021/08/05 11:55:23;;;;;;;2.75;1.40;;;24.20;1.00;;;;;;5088869;27;20043;-89
2021/08/05 11:58:11;;;;;;;2.08;1.30;;;24.10;1.00;;;;;;5095703;27;20054;-91
2021/08/05 12:01:00;;;;;;;3.30;1.63;;;23.50;1.00;;;;;;5089988;27;20127;-90
2021/08/05 12:03:49;;;;;;;3.13;1.45;;;24.10;1.00;;;;;;5104549;27;20955;-90
2021/08/05 12:06:38;;;;;;;2.15;1.30;;;24.00;1.00;;;;;;5087775;27;20082;-90
2021/08/05 12:09:27;;;;;;;2.00;1.35;;;23.80;1.00;;;;;;5100787;27;20411;-91
2021/08/05 12:12:17;;;;;;;1.73;1.50;;;24.30;1.00;;;;;;5088902;27;20051;-90
2021/08/05 12:15:07;;;;;;;3.28;1.40;;;24.10;1.00;;;;;;5094292;27;20451;-89
2021/08/05 12:18:00;;;;;;;2.47;1.63;;;23.70;1.00;;;;;;5105132;27;20050;-89
2021/08/05 12:20:51;;;;;;;2.85;1.58;;;23.60;1.00;;;;;;5100922;27;20051;-88
2021/08/05 12:23:42;;;;;;;1.85;1.63;;;23.50;1.00;;;;;;5090748;27;20065;-89
2021/08/05 12:26:37;;;;;;;2.03;1.23;;;23.80;1.00;;;;;;5091243;27;20191;-89
2021/08/05 12:29:27;;;;;;;1.85;1.27;;;24.10;1.00;;;;;;5089661;27;20043;-88
2021/08/05 12:32:16;;;;;;;3.72;1.60;;;24.00;1.00;;;;;;5102366;27;20561;-88
2021/08/05 12:35:12;;;;;;;1.40;1.17;;;23.00;1.00;;;;;;5086341;27;20191;-90
2021/08/05 12:38:09;;;;;;;1.52;1.17;;;22.70;1.00;;;;;;5088288;27;20053;-91
2021/08/05 12:40:59;;;;;;;1.80;1.20;;;23.50;1.00;;;;;;5090842;27;20043;-88
2021/08/05 12:43:48;;;;;;;2.05;1.40;;;24.00;1.00;;;;;;5091286;27;20127;-88
2021/08/05 12:46:39;;;;;;;3.58;1.10;;;24.10;1.00;;;;;;5106426;27;20046;-89
2021/08/05 12:49:29;;;;;;;3.83;1.33;;;23.10;1.00;;;;;;5094975;27;20296;-87
2021/08/05 12:52:19;;;;;;;3.08;1.50;;;23.40;1.00;;;;;;5087773;27;20564;-87
2021/08/05 12:55:09;;;;;;;1.65;1.20;;;24.00;1.00;;;;;;5095951;27;20051;-87
2021/08/05 12:58:01;;;;;;;2.08;1.20;;;24.20;1.00;;;;;;5091074;27;20149;-88
2021/08/05 13:00:51;;;;;;;2.60;1.00;;;24.20;1.00;;;;;;5085694;27;20058;-89
2021/08/05 13:03:43;;;;;;;1.92;1.45;;;24.10;1.00;;;;;;5088881;27;20055;-87
2021/08/05 13:06:53;;;;;;;2.70;1.27;;;24.10;1.00;;;;;;5091693;27;20040;-88
2021/08/05 13:09:51;;;;;;;1.85;1.38;;;23.90;1.00;;;;;;5091575;27;20055;-87
2021/08/05 13:12:48;;;;;;;2.78;1.15;;;24.60;1.00;;;;;;5088581;27;20051;-87
2021/08/05 13:15:38;;;;;;;4.82;1.42;;;24.40;1.00;;;;;;5087832;27;20526;-88
2021/08/05 13:18:27;;;;;;;3.75;1.30;;;24.30;1.00;;;;;;5093255;27;20054;-86
2021/08/05 13:21:18;;;;;;;4.90;1.02;;;23.20;1.00;;;;;;5089015;27;20051;-87
2021/08/05 13:24:17;;;;;;;2.13;1.90;;;24.00;1.00;;;;;;5096684;27;20527;-88
2021/08/05 13:27:18;;;;;;;1.27;0.90;;;24.30;1.00;;;;;;5084389;27;20040;-88
2021/08/05 13:30:23;;;;;;;1.83;1.10;;;24.00;1.00;;;;;;5091512;27;20051;-89
2021/08/05 13:33:16;;;;;;;;;;;24.00;1.00;;;;;;5103288;27;20559;-89
2021/08/05 13:36:05;;;;;;;2.00;1.05;;;24.30;1.00;;;;;;5090585;27;19923;-87
2021/08/05 13:38:55;;;;;;;4.22;1.60;;;24.30;1.00;;;;;;5089967;27;20050;-86
2021/08/05 13:41:44;;;;;;;3.53;1.00;;;25.00;1.00;;;;;;5093776;27;20059;-87
2021/08/05 13:44:33;;;;;;;1.55;0.95;;;24.20;1.00;;;;;;5090107;27;20677;-87
2021/08/05 13:47:21;;;;;;;1.00;0.90;;;24.20;1.00;;;;;;5092329;27;20553;-88
2021/08/05 13:50:18;;;;;;;1.50;1.02;;;23.80;1.00;;;;;;5087237;27;20051;-88
2021/08/05 13:53:08;;;;;;;1.58;1.00;;;24.70;1.00;;;;;;5091715;27;20046;-87
2021/08/05 13:55:58;;;;;;;1.33;1.15;;;24.80;1.00;;;;;;5100176;27;20572;-89
2021/08/05 13:58:47;;;;;;;4.68;1.00;;;23.90;1.00;;;;;;5105113;27;20142;-90
2021/08/05 14:01:38;;;;;;;1.27;0.80;;;24.20;1.00;;;;;;5107025;27;20065;-90
2021/08/05 14:04:27;;;;;;;5.13;1.65;;;24.50;1.00;;;;;;5091636;27;20121;-90
2021/08/05 14:07:18;;;;;;;1.80;1.15;;;24.30;1.00;;;;;;5098279;27;20054;-90
2021/08/05 14:10:10;;;;;;;1.75;1.00;;;24.10;1.00;;;;;;5093940;27;20080;-89
2021/08/05 14:13:01;;;;;;;2.33;1.13;;;23.80;1.00;;;;;;5092618;27;20180;-90
2021/08/05 14:15:50;;;;;;;2.50;1.02;;;23.90;1.00;;;;;;5090208;27;20663;-90
2021/08/05 14:18:38;;;;;;;1.95;1.58;;;24.10;1.00;;;;;;5094658;27;20489;-87
2021/08/05 14:21:27;;;;;;;1.33;0.90;;;24.10;1.00;;;;;;5087252;27;20055;-89
2021/08/05 14:24:16;;;;;;;6.70;1.08;;;23.80;1.00;;;;;;5094892;27;20062;-88
2021/08/05 14:27:05;;;;;;;3.85;1.27;;;23.70;1.00;;;;;;5094798;27;20043;-90
2021/08/05 14:29:55;;;;;;;1.40;0.85;;;24.30;1.00;;;;;;5092435;27;20080;-88
2021/08/05 14:32:44;;;;;;;3.53;1.20;;;24.70;1.00;;;;;;5095916;27;20569;-89
2021/08/05 14:35:33;;;;;;;1.30;1.02;;;24.60;1.00;;;;;;5089469;27;20043;-89
2021/08/05 14:38:21;;;;;;;3.95;1.02;;;24.40;1.00;;;;;;5096716;27;20074;-90
2021/08/05 14:41:10;;;;;;;1.20;0.98;;;24.10;1.00;;;;;;5097679;27;20083;-90
2021/08/05 14:43:59;;;;;;;1.10;0.90;;;24.00;1.00;;;;;;5092533;27;20090;-90
2021/08/05 14:46:50;;;;;;;1.65;1.10;;;24.30;1.00;;;;;;5092711;27;20047;-90
2021/08/05 14:49:38;;;;;;;1.23;1.00;;;24.30;1.00;;;;;;5097061;27;20141;-88
2021/08/05 14:52:27;;;;;;;3.00;1.27;;;24.50;1.00;;;;;;5089146;27;20544;-90
2021/08/05 14:55:16;;;;;;;1.50;0.90;;;24.50;1.00;;;;;;5094381;27;20063;-88